createdAt,value
2018-05-11T00:00:22.651Z,17.30
2018-05-11T00:01:00.127Z,17.40
2018-05-11T00:01:37.514Z,17.40
2018-05-11T00:02:15.601Z,17.60
2018-05-11T00:02:52.908Z,17.50
2018-05-11T00:03:30.447Z,17.60
2018-05-11T00:04:08.519Z,17.60
2018-05-11T00:04:45.936Z,17.60
2018-05-11T00:05:24.092Z,17.60
2018-05-11T00:06:01.524Z,17.50
2018-05-11T00:06:38.945Z,17.60
2018-05-11T00:07:16.318Z,17.70
2018-05-11T00:07:53.491Z,17.70
2018-05-11T00:08:30.877Z,17.70
2018-05-11T00:09:08.329Z,17.70
2018-05-11T00:09:46.659Z,17.50
2018-05-11T00:10:24.195Z,17.50
2018-05-11T00:11:02.133Z,17.40
2018-05-11T00:11:39.552Z,17.30
2018-05-11T00:12:17.707Z,17.30
2018-05-11T00:12:55.139Z,17.30
2018-05-11T00:13:32.441Z,17.30
2018-05-11T00:14:09.810Z,17.40
2018-05-11T00:14:48.047Z,17.50
2018-05-11T00:15:26.026Z,17.60
2018-05-11T00:16:03.261Z,17.50
2018-05-11T00:16:41.495Z,17.40
2018-05-11T00:17:19.686Z,17.50
2018-05-11T00:17:57.034Z,17.50
2018-05-11T00:18:34.312Z,17.50
2018-05-11T00:19:11.520Z,17.50
2018-05-11T00:19:49.733Z,17.40
2018-05-11T00:20:26.945Z,17.30
2018-05-11T00:21:04.223Z,17.30
2018-05-11T00:21:41.370Z,17.30
2018-05-11T00:22:18.828Z,17.20
2018-05-11T00:22:56.041Z,17.30
2018-05-11T00:23:33.541Z,17.50
2018-05-11T00:24:10.979Z,17.50
2018-05-11T00:24:48.082Z,17.60
2018-05-11T00:25:25.504Z,17.60
2018-05-11T00:26:03.555Z,17.60
2018-05-11T00:26:40.816Z,17.60
2018-05-11T00:27:18.151Z,17.70
2018-05-11T00:27:55.362Z,17.60
2018-05-11T00:28:33.499Z,17.50
2018-05-11T00:29:11.463Z,17.50
2018-05-11T00:29:48.863Z,17.50
2018-05-11T00:30:26.306Z,17.40
2018-05-11T00:31:03.722Z,17.30
2018-05-11T00:31:41.133Z,17.30
2018-05-11T00:32:19.041Z,17.20
2018-05-11T00:32:56.406Z,17.20
2018-05-11T00:33:34.468Z,17.20
2018-05-11T00:34:11.728Z,17.20
2018-05-11T00:34:48.881Z,17.20
2018-05-11T00:35:26.183Z,17.10
2018-05-11T00:36:03.645Z,17.10
2018-05-11T00:36:41.025Z,17.00
2018-05-11T00:37:18.380Z,17.00
2018-05-11T00:37:55.640Z,17.00
2018-05-11T00:38:33.019Z,17.00
2018-05-11T00:39:11.163Z,17.10
2018-05-11T00:39:48.534Z,17.00
2018-05-11T00:40:26.003Z,17.20
2018-05-11T00:41:03.377Z,17.20
2018-05-11T00:41:40.827Z,17.10
2018-05-11T00:42:18.227Z,17.10
2018-05-11T00:42:55.547Z,17.10
2018-05-11T00:43:32.810Z,17.20
2018-05-11T00:44:10.130Z,17.20
2018-05-11T00:44:48.241Z,17.20
2018-05-11T00:45:25.401Z,17.10
2018-05-11T00:46:02.843Z,17.10
2018-05-11T00:46:41.022Z,17.10
2018-05-11T00:47:19.131Z,17.10
2018-05-11T00:47:56.479Z,17.10
2018-05-11T00:48:33.715Z,17.10
2018-05-11T00:49:11.147Z,17.10
2018-05-11T00:49:49.285Z,17.20
2018-05-11T00:50:26.602Z,17.20
2018-05-11T00:51:04.102Z,17.20
2018-05-11T00:51:41.973Z,17.30
2018-05-11T00:52:19.343Z,17.30
2018-05-11T00:52:57.535Z,17.30
2018-05-11T00:53:34.852Z,17.30
2018-05-11T00:54:13.010Z,17.40
2018-05-11T00:54:50.430Z,17.30
2018-05-11T00:55:28.583Z,17.30
2018-05-11T00:56:05.993Z,17.30
2018-05-11T00:56:44.135Z,17.40
2018-05-11T00:57:21.598Z,17.30
2018-05-11T00:57:59.000Z,17.30
2018-05-11T00:58:37.087Z,17.30
2018-05-11T00:59:14.555Z,17.20
2018-05-11T00:59:51.743Z,17.30
2018-05-11T01:00:29.828Z,17.30
2018-05-11T01:01:07.255Z,17.20
2018-05-11T01:01:44.695Z,17.30
2018-05-11T01:02:22.151Z,17.20
2018-05-11T01:02:59.401Z,17.20
2018-05-11T01:03:36.726Z,17.20
2018-05-11T01:04:13.902Z,17.20
2018-05-11T01:04:52.117Z,17.40
2018-05-11T01:05:29.515Z,17.40
2018-05-11T01:06:07.673Z,17.40
2018-05-11T01:06:45.871Z,17.40
2018-05-11T01:07:23.146Z,17.40
2018-05-11T01:08:00.591Z,17.40
2018-05-11T01:08:38.727Z,17.30
2018-05-11T01:09:15.947Z,17.20
2018-05-11T01:09:53.307Z,17.20
2018-05-11T01:10:31.474Z,17.20
2018-05-11T01:11:08.781Z,17.20
2018-05-11T01:11:46.181Z,17.20
2018-05-11T01:12:23.601Z,17.20
2018-05-11T01:13:00.971Z,17.20
2018-05-11T01:13:38.171Z,17.20
2018-05-11T01:14:15.505Z,17.20
2018-05-11T01:14:52.908Z,17.20
2018-05-11T01:15:30.033Z,17.30
2018-05-11T01:16:07.235Z,17.20
2018-05-11T01:16:44.658Z,17.20
2018-05-11T01:17:21.946Z,17.20
2018-05-11T01:18:00.077Z,17.20
2018-05-11T01:18:37.513Z,17.20
2018-05-11T01:19:14.909Z,17.30
2018-05-11T01:19:53.129Z,17.40
2018-05-11T01:20:31.342Z,17.40
2018-05-11T01:21:08.553Z,17.40
2018-05-11T01:21:45.729Z,17.40
2018-05-11T01:22:22.961Z,17.40
2018-05-11T01:23:00.301Z,17.40
2018-05-11T01:23:37.772Z,17.40
2018-05-11T01:24:15.024Z,17.40
2018-05-11T01:24:52.152Z,17.50
2018-05-11T01:25:29.558Z,17.50
2018-05-11T01:26:07.742Z,17.40
2018-05-11T01:26:45.906Z,17.30
2018-05-11T01:27:23.087Z,17.30
2018-05-11T01:28:00.455Z,17.30
2018-05-11T01:28:37.888Z,17.40
2018-05-11T01:29:15.803Z,17.30
2018-05-11T01:29:53.940Z,17.40
2018-05-11T01:30:31.358Z,17.40
2018-05-11T01:31:08.520Z,17.50
2018-05-11T01:31:45.841Z,17.50
2018-05-11T01:32:23.940Z,17.60
2018-05-11T01:33:01.178Z,17.60
2018-05-11T01:33:38.495Z,17.50
2018-05-11T01:34:16.678Z,17.60
2018-05-11T01:34:54.874Z,17.50
2018-05-11T01:35:32.203Z,17.50
2018-05-11T01:36:09.598Z,17.50
2018-05-11T01:36:46.814Z,17.40
2018-05-11T01:37:24.213Z,17.40
2018-05-11T01:38:01.688Z,17.50
2018-05-11T01:38:39.636Z,17.60
2018-05-11T01:39:17.834Z,17.60
2018-05-11T01:39:55.933Z,17.60
2018-05-11T01:40:33.172Z,17.60
2018-05-11T01:41:10.509Z,17.60
2018-05-11T01:41:47.915Z,17.60
2018-05-11T01:42:26.091Z,17.60
2018-05-11T01:43:03.283Z,17.60
2018-05-11T01:43:41.410Z,17.50
2018-05-11T01:44:18.825Z,17.50
2018-05-11T01:44:56.051Z,17.40
2018-05-11T01:45:33.291Z,17.40
2018-05-11T01:46:10.566Z,17.40
2018-05-11T01:46:47.963Z,17.40
2018-05-11T01:47:25.221Z,17.40
2018-05-11T01:48:03.149Z,17.50
2018-05-11T01:48:40.543Z,17.50
2018-05-11T01:49:18.499Z,17.50
2018-05-11T01:49:55.760Z,17.50
2018-05-11T01:50:33.162Z,17.50
2018-05-11T01:51:11.740Z,17.40
2018-05-11T01:51:49.213Z,17.40
2018-05-11T01:52:27.390Z,17.50
2018-05-11T01:53:04.882Z,17.40
2018-05-11T01:53:42.114Z,17.50
2018-05-11T01:54:19.310Z,17.60
2018-05-11T01:54:56.467Z,17.50
2018-05-11T01:55:33.938Z,17.50
2018-05-11T01:56:11.355Z,17.50
2018-05-11T01:56:48.605Z,17.40
2018-05-11T01:57:25.932Z,17.40
2018-05-11T01:58:03.896Z,17.30
2018-05-11T01:58:41.337Z,17.30
2018-05-11T01:59:18.564Z,17.20
2018-05-11T01:59:55.735Z,17.20
2018-05-11T02:00:33.109Z,17.20
2018-05-11T02:01:10.275Z,17.20
2018-05-11T02:01:47.702Z,17.20
2018-05-11T02:02:25.728Z,17.30
2018-05-11T02:03:03.933Z,17.30
2018-05-11T02:03:41.405Z,17.30
2018-05-11T02:04:18.580Z,17.30
2018-05-11T02:04:56.020Z,17.20
2018-05-11T02:05:33.198Z,17.20
2018-05-11T02:06:11.238Z,17.20
2018-05-11T02:06:48.397Z,17.20
2018-05-11T02:07:25.571Z,17.30
2018-05-11T02:08:03.016Z,17.40
2018-05-11T02:08:40.440Z,17.40
2018-05-11T02:09:17.811Z,17.40
2018-05-11T02:09:55.145Z,17.40
2018-05-11T02:10:32.361Z,17.50
2018-05-11T02:11:10.418Z,17.40
2018-05-11T02:11:48.423Z,17.60
2018-05-11T02:12:26.645Z,17.60
2018-05-11T02:13:04.029Z,17.60
2018-05-11T02:13:41.405Z,17.60
2018-05-11T02:14:18.670Z,17.80
2018-05-11T02:14:56.050Z,17.70
2018-05-11T02:15:33.296Z,17.70
2018-05-11T02:16:10.678Z,17.80
2018-05-11T02:16:48.109Z,17.70
2018-05-11T02:17:25.515Z,17.70
2018-05-11T02:18:02.886Z,17.70
2018-05-11T02:18:40.296Z,17.70
2018-05-11T02:19:18.163Z,17.90
2018-05-11T02:19:55.420Z,17.90
2018-05-11T02:20:32.826Z,18.00
2018-05-11T02:21:11.020Z,18.00
2018-05-11T02:21:48.374Z,18.00
2018-05-11T02:22:26.489Z,17.90
2018-05-11T02:23:03.844Z,18.00
2018-05-11T02:23:41.970Z,18.00
2018-05-11T02:24:19.320Z,18.00
2018-05-11T02:24:57.569Z,18.10
2018-05-11T02:25:34.793Z,18.10
2018-05-11T02:26:12.148Z,18.20
2018-05-11T02:26:49.579Z,18.20
2018-05-11T02:27:27.765Z,18.30
2018-05-11T02:28:05.940Z,18.30
2018-05-11T02:28:44.055Z,18.40
2018-05-11T02:29:21.505Z,18.40
2018-05-11T02:29:58.885Z,18.50
2018-05-11T02:30:36.078Z,18.50
2018-05-11T02:31:13.529Z,18.50
2018-05-11T02:31:51.421Z,18.40
2018-05-11T02:32:29.620Z,18.40
2018-05-11T02:33:06.901Z,18.40
2018-05-11T02:33:45.109Z,18.50
2018-05-11T02:34:23.297Z,18.60
2018-05-11T02:35:00.504Z,18.60
2018-05-11T02:35:37.965Z,18.60
2018-05-11T02:36:15.295Z,18.60
2018-05-11T02:36:52.502Z,18.60
2018-05-11T02:37:29.827Z,18.70
2018-05-11T02:38:07.757Z,18.70
2018-05-11T02:38:45.220Z,18.70
2018-05-11T02:39:22.423Z,18.70
2018-05-11T02:40:00.789Z,18.70
2018-05-11T02:40:39.007Z,18.80
2018-05-11T02:41:17.088Z,18.80
2018-05-11T02:41:54.582Z,18.80
2018-05-11T02:42:32.770Z,18.80
2018-05-11T02:43:10.156Z,18.90
2018-05-11T02:43:47.556Z,18.90
2018-05-11T02:44:24.918Z,18.90
2018-05-11T02:45:03.022Z,18.90
2018-05-11T02:45:40.253Z,18.90
2018-05-11T02:46:17.421Z,18.90
2018-05-11T02:46:54.856Z,18.90
2018-05-11T02:47:32.030Z,18.90
2018-05-11T02:48:10.230Z,18.90
2018-05-11T02:48:47.517Z,18.90
2018-05-11T02:49:24.843Z,19.00
2018-05-11T02:50:02.351Z,19.00
2018-05-11T02:50:39.786Z,18.90
2018-05-11T02:51:17.673Z,18.90
2018-05-11T02:51:55.707Z,19.00
2018-05-11T02:52:32.927Z,19.00
2018-05-11T02:53:11.061Z,19.00
2018-05-11T02:53:48.535Z,19.00
2018-05-11T02:54:25.796Z,19.00
2018-05-11T02:55:03.259Z,19.00
2018-05-11T02:55:41.477Z,19.00
2018-05-11T02:56:19.572Z,19.00
2018-05-11T02:56:57.662Z,19.00
2018-05-11T02:57:35.130Z,19.00
2018-05-11T02:58:12.428Z,19.00
2018-05-11T02:58:50.598Z,19.00
2018-05-11T02:59:28.741Z,19.00
2018-05-11T03:00:06.136Z,19.00
2018-05-11T03:00:44.368Z,19.00
2018-05-11T03:01:22.576Z,19.00
2018-05-11T03:02:00.770Z,19.00
2018-05-11T03:02:38.091Z,19.00
2018-05-11T03:03:15.261Z,19.00
2018-05-11T03:03:52.470Z,19.00
2018-05-11T03:04:29.755Z,19.00
2018-05-11T03:05:06.984Z,19.00
2018-05-11T03:05:44.348Z,19.00
2018-05-11T03:06:22.491Z,19.00
2018-05-11T03:06:59.899Z,19.00
2018-05-11T03:07:37.027Z,19.00
2018-05-11T03:08:14.432Z,19.00
2018-05-11T03:08:52.614Z,19.00
2018-05-11T03:09:29.781Z,19.00
2018-05-11T03:10:07.042Z,19.00
2018-05-11T03:10:44.418Z,19.00
2018-05-11T03:11:21.720Z,19.00
2018-05-11T03:11:59.187Z,19.00
2018-05-11T03:12:36.559Z,18.90
2018-05-11T03:13:14.545Z,19.00
2018-05-11T03:13:52.639Z,19.00
2018-05-11T03:14:30.850Z,19.00
2018-05-11T03:15:08.303Z,19.00
2018-05-11T03:15:45.705Z,19.00
2018-05-11T03:16:22.951Z,18.90
2018-05-11T03:17:00.223Z,19.00
2018-05-11T03:17:37.503Z,19.00
2018-05-11T03:18:14.789Z,18.90
2018-05-11T03:18:52.235Z,18.90
2018-05-11T03:19:29.718Z,19.00
2018-05-11T03:20:07.994Z,19.00
2018-05-11T03:20:45.207Z,19.00
2018-05-11T03:21:22.373Z,19.10
2018-05-11T03:21:59.774Z,19.10
2018-05-11T03:22:36.949Z,19.10
2018-05-11T03:23:14.346Z,19.10
2018-05-11T03:23:51.598Z,19.10
2018-05-11T03:24:29.593Z,19.10
2018-05-11T03:25:07.771Z,19.10
2018-05-11T03:25:45.159Z,19.10
2018-05-11T03:26:23.255Z,19.00
2018-05-11T03:27:00.489Z,19.00
2018-05-11T03:27:37.777Z,19.00
2018-05-11T03:28:15.212Z,19.10
2018-05-11T03:28:52.399Z,19.10
2018-05-11T03:29:29.592Z,19.10
2018-05-11T03:30:06.847Z,19.10
2018-05-11T03:30:44.125Z,19.10
2018-05-11T03:31:21.347Z,19.10
2018-05-11T03:31:59.549Z,19.10
2018-05-11T03:32:36.858Z,19.10
2018-05-11T03:33:15.004Z,19.10
2018-05-11T03:33:52.305Z,19.10
2018-05-11T03:34:30.477Z,19.10
2018-05-11T03:35:07.862Z,19.10
2018-05-11T03:35:45.103Z,19.10
2018-05-11T03:36:23.244Z,19.00
2018-05-11T03:37:00.454Z,19.10
2018-05-11T03:37:37.819Z,19.10
2018-05-11T03:38:15.051Z,19.10
2018-05-11T03:38:52.442Z,19.10
2018-05-11T03:39:29.719Z,19.10
2018-05-11T03:40:07.886Z,19.10
2018-05-11T03:40:45.873Z,19.10
2018-05-11T03:41:23.323Z,19.10
2018-05-11T03:42:00.564Z,19.10
2018-05-11T03:42:38.734Z,19.10
2018-05-11T03:43:16.215Z,19.10
2018-05-11T03:43:53.503Z,19.10
2018-05-11T03:44:30.825Z,19.10
2018-05-11T03:45:08.748Z,19.10
2018-05-11T03:45:46.090Z,19.10
2018-05-11T03:46:23.270Z,19.10
2018-05-11T03:47:01.498Z,19.00
2018-05-11T03:47:38.957Z,19.00
2018-05-11T03:48:17.082Z,19.00
2018-05-11T03:48:54.384Z,19.00
2018-05-11T03:49:31.611Z,19.00
2018-05-11T03:50:08.829Z,19.00
2018-05-11T03:50:47.001Z,19.00
2018-05-11T03:51:24.297Z,18.90
2018-05-11T03:52:01.536Z,18.90
2018-05-11T03:52:38.894Z,18.90
2018-05-11T03:53:16.371Z,18.90
2018-05-11T03:53:54.373Z,18.80
2018-05-11T03:54:32.365Z,18.80
2018-05-11T03:55:09.840Z,18.80
2018-05-11T03:55:47.050Z,18.80
2018-05-11T03:56:25.215Z,18.80
2018-05-11T03:57:02.346Z,18.80
2018-05-11T03:57:39.726Z,18.80
2018-05-11T03:58:17.165Z,18.80
2018-05-11T03:58:55.356Z,18.80
2018-05-11T03:59:33.435Z,18.80
2018-05-11T04:00:10.857Z,18.80
2018-05-11T04:00:48.307Z,18.80
2018-05-11T04:01:26.321Z,18.80
2018-05-11T04:02:03.647Z,18.70
2018-05-11T04:02:41.786Z,18.70
2018-05-11T04:03:20.022Z,18.70
2018-05-11T04:03:57.322Z,18.60
2018-05-11T04:04:34.736Z,18.60
2018-05-11T04:05:12.950Z,18.60
2018-05-11T04:05:51.128Z,18.70
2018-05-11T04:06:28.502Z,18.60
2018-05-11T04:07:06.693Z,18.60
2018-05-11T04:07:44.058Z,18.60
2018-05-11T04:08:21.249Z,18.50
2018-05-11T04:08:58.536Z,18.50
2018-05-11T04:09:36.009Z,18.40
2018-05-11T04:10:13.253Z,18.40
2018-05-11T04:10:51.460Z,18.40
2018-05-11T04:11:29.651Z,18.40
2018-05-11T04:12:07.062Z,18.40
2018-05-11T04:12:44.182Z,18.30
2018-05-11T04:13:21.667Z,18.40
2018-05-11T04:13:59.007Z,18.50
2018-05-11T04:14:36.949Z,18.50
2018-05-11T04:15:14.338Z,18.40
2018-05-11T04:15:51.772Z,18.60
2018-05-11T04:16:30.016Z,18.60
2018-05-11T04:17:07.393Z,18.60
2018-05-11T04:17:44.825Z,18.60
2018-05-11T04:18:22.295Z,18.60
2018-05-11T04:19:00.457Z,18.60
2018-05-11T04:19:37.662Z,18.50
2018-05-11T04:20:15.043Z,18.60
2018-05-11T04:20:52.328Z,18.60
2018-05-11T04:21:30.471Z,18.60
2018-05-11T04:22:07.785Z,18.70
2018-05-11T04:22:45.112Z,18.60
2018-05-11T04:23:23.294Z,18.50
2018-05-11T04:24:00.669Z,18.50
2018-05-11T04:24:38.663Z,18.50
2018-05-11T04:25:16.093Z,18.40
2018-05-11T04:25:54.130Z,18.50
2018-05-11T04:26:31.392Z,18.50
2018-05-11T04:27:08.663Z,18.50
2018-05-11T04:27:45.924Z,18.50
2018-05-11T04:28:23.277Z,18.40
2018-05-11T04:29:00.485Z,18.50
2018-05-11T04:29:38.592Z,18.50
2018-05-11T04:30:16.018Z,18.50
2018-05-11T04:30:54.073Z,18.60
2018-05-11T04:31:31.419Z,18.50
2018-05-11T04:32:08.810Z,18.50
2018-05-11T04:32:46.223Z,18.60
2018-05-11T04:33:23.595Z,18.60
2018-05-11T04:34:01.667Z,18.70
2018-05-11T04:34:39.072Z,18.70
2018-05-11T04:35:17.036Z,18.70
2018-05-11T04:35:54.378Z,18.70
2018-05-11T04:36:31.892Z,18.70
2018-05-11T04:37:09.269Z,18.60
2018-05-11T04:37:46.619Z,18.60
2018-05-11T04:38:24.102Z,18.60
2018-05-11T04:39:01.428Z,18.50
2018-05-11T04:39:39.588Z,18.50
2018-05-11T04:40:16.811Z,18.40
2018-05-11T04:40:54.242Z,18.40
2018-05-11T04:41:32.441Z,18.40
2018-05-11T04:42:09.814Z,18.30
2018-05-11T04:42:47.280Z,18.40
2018-05-11T04:43:25.488Z,18.30
2018-05-11T04:44:02.687Z,18.30
2018-05-11T04:44:40.106Z,18.30
2018-05-11T04:45:18.278Z,18.40
2018-05-11T04:45:55.649Z,18.30
2018-05-11T04:46:32.949Z,18.40
2018-05-11T04:47:10.323Z,18.30
2018-05-11T04:47:47.707Z,18.40
2018-05-11T04:48:25.134Z,18.40
2018-05-11T04:49:02.367Z,18.40
2018-05-11T04:49:40.498Z,18.50
2018-05-11T04:50:17.903Z,18.40
2018-05-11T04:50:55.299Z,18.40
2018-05-11T04:51:32.548Z,18.50
2018-05-11T04:52:10.704Z,18.50
2018-05-11T04:52:48.050Z,18.50
2018-05-11T04:53:25.525Z,18.50
2018-05-11T04:54:02.755Z,18.50
2018-05-11T04:54:39.970Z,18.50
2018-05-11T04:55:17.367Z,18.50
2018-05-11T04:55:54.747Z,18.50
2018-05-11T04:56:32.216Z,18.50
2018-05-11T04:57:09.399Z,18.40
2018-05-11T04:57:46.826Z,18.40
2018-05-11T04:58:24.129Z,18.30
2018-05-11T04:59:01.333Z,18.40
2018-05-11T04:59:38.773Z,18.40
2018-05-11T05:00:16.154Z,18.40
2018-05-11T05:00:53.549Z,18.40
2018-05-11T05:01:30.713Z,18.40
2018-05-11T05:02:08.155Z,18.40
2018-05-11T05:02:45.488Z,18.40
2018-05-11T05:03:22.914Z,18.40
2018-05-11T05:04:00.949Z,18.60
2018-05-11T05:04:38.380Z,18.50
2018-05-11T05:05:15.672Z,18.60
2018-05-11T05:05:53.753Z,18.60
2018-05-11T05:06:31.046Z,18.50
2018-05-11T05:07:08.326Z,18.50
2018-05-11T05:07:46.548Z,18.50
2018-05-11T05:08:23.899Z,18.50
2018-05-11T05:09:02.037Z,18.50
2018-05-11T05:09:39.262Z,18.50
2018-05-11T05:10:16.702Z,18.40
2018-05-11T05:10:54.678Z,18.30
2018-05-11T05:11:32.128Z,18.30
2018-05-11T05:12:09.577Z,18.30
2018-05-11T05:12:46.837Z,18.40
2018-05-11T05:13:24.970Z,18.50
2018-05-11T05:14:03.178Z,18.60
2018-05-11T05:14:40.466Z,18.60
2018-05-11T05:15:18.541Z,18.70
2018-05-11T05:15:56.763Z,18.80
2018-05-11T05:16:34.220Z,18.80
2018-05-11T05:17:11.666Z,18.90
2018-05-11T05:17:49.780Z,18.90
2018-05-11T05:18:27.181Z,18.90
2018-05-11T05:19:05.487Z,18.80
2018-05-11T05:19:42.745Z,18.80
2018-05-11T05:20:19.938Z,18.90
2018-05-11T05:20:57.129Z,18.90
2018-05-11T05:21:34.529Z,19.00
2018-05-11T05:22:12.683Z,19.10
2018-05-11T05:22:50.863Z,19.10
2018-05-11T05:23:28.218Z,19.10
2018-05-11T05:24:05.683Z,19.10
2018-05-11T05:24:43.789Z,19.10
2018-05-11T05:25:21.241Z,19.10
2018-05-11T05:25:58.476Z,19.10
2018-05-11T05:26:35.906Z,19.00
2018-05-11T05:27:13.152Z,19.00
2018-05-11T05:27:50.341Z,19.00
2018-05-11T05:28:27.717Z,18.90
2018-05-11T05:29:05.184Z,18.90
2018-05-11T05:29:43.318Z,18.80
2018-05-11T05:30:20.698Z,18.80
2018-05-11T05:30:58.122Z,18.80
2018-05-11T05:31:35.568Z,18.80
2018-05-11T05:32:12.892Z,18.80
2018-05-11T05:32:50.266Z,18.80
2018-05-11T05:33:27.466Z,18.80
2018-05-11T05:34:04.617Z,18.80
2018-05-11T05:34:41.987Z,18.80
2018-05-11T05:35:19.169Z,18.80
2018-05-11T05:35:56.663Z,18.80
2018-05-11T05:36:33.820Z,18.80
2018-05-11T05:37:11.011Z,18.80
2018-05-11T05:37:48.403Z,18.80
2018-05-11T05:38:25.672Z,18.80
2018-05-11T05:39:03.002Z,18.70
2018-05-11T05:39:41.145Z,18.80
2018-05-11T05:40:19.339Z,18.80
2018-05-11T05:40:56.768Z,18.80
2018-05-11T05:41:34.908Z,18.90
2018-05-11T05:42:12.326Z,18.80
2018-05-11T05:42:50.491Z,18.90
2018-05-11T05:43:27.875Z,18.90
2018-05-11T05:44:05.917Z,19.00
2018-05-11T05:44:43.355Z,19.00
2018-05-11T05:45:20.563Z,19.00
2018-05-11T05:45:58.696Z,19.10
2018-05-11T05:46:36.146Z,19.10
2018-05-11T05:47:14.364Z,19.10
2018-05-11T05:47:51.515Z,19.10
2018-05-11T05:48:29.734Z,19.10
2018-05-11T05:49:07.094Z,19.00
2018-05-11T05:49:44.264Z,19.00
2018-05-11T05:50:22.480Z,19.00
2018-05-11T05:50:59.835Z,19.00
2018-05-11T05:51:37.948Z,19.00
2018-05-11T05:52:15.374Z,19.00
2018-05-11T05:52:53.514Z,18.90
2018-05-11T05:53:30.926Z,18.90
2018-05-11T05:54:09.030Z,18.80
2018-05-11T05:54:46.963Z,18.80
2018-05-11T05:55:25.166Z,18.80
2018-05-11T05:56:02.557Z,18.80
2018-05-11T05:56:39.737Z,18.80
2018-05-11T05:57:17.015Z,18.80
2018-05-11T05:57:55.185Z,18.80
2018-05-11T05:58:32.640Z,18.80
2018-05-11T05:59:09.846Z,18.80
2018-05-11T05:59:47.193Z,18.80
2018-05-11T06:00:24.396Z,18.90
2018-05-11T06:01:02.418Z,19.00
2018-05-11T06:01:39.636Z,19.00
2018-05-11T06:02:16.997Z,19.10
2018-05-11T06:02:54.924Z,19.10
2018-05-11T06:03:32.272Z,19.10
2018-05-11T06:04:09.584Z,19.20
2018-05-11T06:04:46.818Z,19.20
2018-05-11T06:05:24.247Z,19.20
2018-05-11T06:06:01.373Z,19.20
2018-05-11T06:06:38.810Z,19.20
2018-05-11T06:07:16.285Z,19.20
2018-05-11T06:07:53.666Z,19.20
2018-05-11T06:08:31.747Z,19.10
2018-05-11T06:09:09.106Z,19.10
2018-05-11T06:09:46.250Z,19.10
2018-05-11T06:10:23.535Z,19.00
2018-05-11T06:11:00.743Z,19.00
2018-05-11T06:11:38.039Z,19.00
2018-05-11T06:12:15.412Z,18.90
2018-05-11T06:12:53.590Z,18.90
2018-05-11T06:13:31.049Z,18.80
2018-05-11T06:14:08.402Z,18.90
2018-05-11T06:14:45.786Z,18.90
2018-05-11T06:15:23.105Z,18.90
2018-05-11T06:16:00.244Z,18.90
2018-05-11T06:16:38.439Z,18.90
2018-05-11T06:17:15.807Z,18.80
2018-05-11T06:17:53.250Z,18.90
2018-05-11T06:18:30.588Z,19.00
2018-05-11T06:19:07.964Z,19.10
2018-05-11T06:19:45.190Z,19.00
2018-05-11T06:20:22.504Z,19.00
2018-05-11T06:20:59.894Z,19.00
2018-05-11T06:21:37.347Z,18.90
2018-05-11T06:22:15.433Z,18.80
2018-05-11T06:22:52.830Z,18.90
2018-05-11T06:23:30.918Z,18.80
2018-05-11T06:24:08.988Z,18.80
2018-05-11T06:24:46.234Z,18.70
2018-05-11T06:25:24.267Z,18.70
2018-05-11T06:26:01.606Z,18.60
2018-05-11T06:26:39.027Z,18.60
2018-05-11T06:27:16.319Z,18.60
2018-05-11T06:27:53.772Z,18.60
2018-05-11T06:28:31.157Z,18.60
2018-05-11T06:29:08.533Z,18.60
2018-05-11T06:29:45.929Z,18.70
2018-05-11T06:30:23.330Z,18.70
2018-05-11T06:31:00.559Z,18.80
2018-05-11T06:31:38.765Z,18.90
2018-05-11T06:32:16.147Z,18.90
2018-05-11T06:32:53.357Z,18.90
2018-05-11T06:33:30.714Z,18.80
2018-05-11T06:34:08.764Z,18.80
2018-05-11T06:34:46.038Z,18.80
2018-05-11T06:35:24.047Z,18.90
2018-05-11T06:36:01.380Z,18.80
2018-05-11T06:36:39.602Z,19.00
2018-05-11T06:37:16.939Z,18.90
2018-05-11T06:37:54.335Z,19.00
2018-05-11T06:38:31.759Z,18.90
2018-05-11T06:39:09.183Z,18.90
2018-05-11T06:39:46.576Z,18.90
2018-05-11T06:40:23.865Z,19.00
2018-05-11T06:41:01.298Z,19.00
2018-05-11T06:41:38.689Z,19.00
2018-05-11T06:42:16.899Z,19.10
2018-05-11T06:42:54.288Z,19.10
2018-05-11T06:43:31.656Z,19.10
2018-05-11T06:44:09.699Z,19.20
2018-05-11T06:44:47.055Z,19.20
2018-05-11T06:45:25.230Z,19.20
2018-05-11T06:46:02.796Z,19.20
2018-05-11T06:46:40.209Z,19.20
2018-05-11T06:47:17.556Z,19.20
2018-05-11T06:47:54.945Z,19.20
2018-05-11T06:48:32.110Z,19.20
2018-05-11T06:49:10.311Z,19.20
2018-05-11T06:49:48.514Z,19.30
2018-05-11T06:50:26.605Z,19.30
2018-05-11T06:51:04.580Z,19.30
2018-05-11T06:51:42.780Z,19.30
2018-05-11T06:52:20.118Z,19.30
2018-05-11T06:52:57.539Z,19.40
2018-05-11T06:53:35.520Z,19.30
2018-05-11T06:54:13.733Z,19.30
2018-05-11T06:54:51.179Z,19.30
2018-05-11T06:55:28.548Z,19.30
2018-05-11T06:56:06.762Z,19.30
2018-05-11T06:56:44.171Z,19.30
2018-05-11T06:57:21.366Z,19.30
2018-05-11T06:57:59.413Z,19.30
2018-05-11T06:58:37.608Z,19.30
2018-05-11T06:59:14.858Z,19.20
2018-05-11T06:59:52.205Z,19.30
2018-05-11T07:00:29.437Z,19.30
2018-05-11T07:01:07.717Z,19.20
2018-05-11T07:01:44.932Z,19.20
2018-05-11T07:02:22.182Z,19.30
2018-05-11T07:02:59.538Z,19.30
2018-05-11T07:03:36.715Z,19.30
2018-05-11T07:04:13.995Z,19.30
2018-05-11T07:04:51.444Z,19.30
2018-05-11T07:05:28.814Z,19.30
2018-05-11T07:06:06.195Z,19.30
2018-05-11T07:06:43.565Z,19.30
2018-05-11T07:07:21.099Z,19.30
2018-05-11T07:07:58.438Z,19.30
2018-05-11T07:08:35.850Z,19.30
2018-05-11T07:09:13.940Z,19.30
2018-05-11T07:09:51.223Z,19.30
2018-05-11T07:10:28.375Z,19.30
2018-05-11T07:11:05.523Z,19.20
2018-05-11T07:11:42.849Z,19.20
2018-05-11T07:12:20.007Z,19.20
2018-05-11T07:12:57.441Z,19.10
2018-05-11T07:13:34.848Z,19.20
2018-05-11T07:14:12.282Z,19.20
2018-05-11T07:14:49.524Z,19.20
2018-05-11T07:15:27.666Z,19.20
2018-05-11T07:16:05.033Z,19.20
2018-05-11T07:16:43.162Z,19.30
2018-05-11T07:17:20.548Z,19.20
2018-05-11T07:17:57.893Z,19.30
2018-05-11T07:18:35.122Z,19.40
2018-05-11T07:19:12.319Z,19.40
2018-05-11T07:19:49.546Z,19.40
2018-05-11T07:20:26.960Z,19.50
2018-05-11T07:21:04.256Z,19.50
2018-05-11T07:21:41.687Z,19.50
2018-05-11T07:22:19.867Z,19.50
2018-05-11T07:22:57.096Z,19.50
2018-05-11T07:23:35.224Z,19.50
2018-05-11T07:24:12.650Z,19.50
2018-05-11T07:24:49.853Z,19.50
2018-05-11T07:25:28.060Z,19.40
2018-05-11T07:26:05.330Z,19.40
2018-05-11T07:26:43.540Z,19.40
2018-05-11T07:27:20.779Z,19.40
2018-05-11T07:27:57.973Z,19.30
2018-05-11T07:28:35.218Z,19.30
2018-05-11T07:29:12.512Z,19.30
2018-05-11T07:29:49.786Z,19.30
2018-05-11T07:30:27.009Z,19.30
2018-05-11T07:31:05.203Z,19.30
2018-05-11T07:31:42.430Z,19.30
2018-05-11T07:32:20.648Z,19.30
2018-05-11T07:32:58.100Z,19.30
2018-05-11T07:33:36.219Z,19.40
2018-05-11T07:34:13.603Z,19.30
2018-05-11T07:34:51.838Z,19.30
2018-05-11T07:35:29.175Z,19.30
2018-05-11T07:36:07.156Z,19.30
2018-05-11T07:36:44.501Z,19.20
2018-05-11T07:37:21.820Z,19.20
2018-05-11T07:37:59.185Z,19.20
2018-05-11T07:38:36.566Z,19.20
2018-05-11T07:39:13.910Z,19.20
2018-05-11T07:39:51.385Z,19.20
2018-05-11T07:40:28.557Z,19.10
2018-05-11T07:41:05.987Z,19.20
2018-05-11T07:41:43.140Z,19.20
2018-05-11T07:42:20.573Z,19.30
2018-05-11T07:42:58.014Z,19.30
2018-05-11T07:43:36.187Z,19.30
2018-05-11T07:44:14.393Z,19.30
2018-05-11T07:44:51.658Z,19.30
2018-05-11T07:45:29.034Z,19.40
2018-05-11T07:46:07.234Z,19.40
2018-05-11T07:46:44.473Z,19.40
2018-05-11T07:47:21.881Z,19.40
2018-05-11T07:47:59.283Z,19.40
2018-05-11T07:48:36.606Z,19.40
2018-05-11T07:49:14.137Z,19.40
2018-05-11T07:49:51.381Z,19.40
2018-05-11T07:50:28.695Z,19.30
2018-05-11T07:51:06.741Z,19.30
2018-05-11T07:51:44.010Z,19.30
2018-05-11T07:52:21.408Z,19.30
2018-05-11T07:52:58.829Z,19.30
2018-05-11T07:53:36.265Z,19.30
2018-05-11T07:54:14.467Z,19.30
2018-05-11T07:54:51.859Z,19.30
2018-05-11T07:55:29.174Z,19.30
2018-05-11T07:56:06.613Z,19.30
2018-05-11T07:56:44.015Z,19.30
2018-05-11T07:57:21.259Z,19.30
2018-05-11T07:57:58.515Z,19.30
2018-05-11T07:58:35.943Z,19.30
2018-05-11T07:59:13.145Z,19.30
2018-05-11T07:59:50.508Z,19.30
2018-05-11T08:00:28.734Z,19.30
2018-05-11T08:01:05.886Z,19.30
2018-05-11T08:01:43.312Z,19.30
2018-05-11T08:02:20.548Z,19.20
2018-05-11T08:02:57.929Z,19.20
2018-05-11T08:03:35.428Z,19.20